LIME Airport Information

Runway Information
Runway 10 Length 9636 ft width 148 ft
Elevation 779 ft Threshold 312 ft Heading 105
Runway 28 Length 9636 ft Width 148 ft
Elevation 754 ft Threshold 427 ft Heading 285
Runway 12 Length 2552 ft width 59 ft
Elevation 782 ft Threshold 210 ft Heading 121
Runway 30 Length 2552 ft Width 59 ft
Elevation 782 ft Threshold 328 ft Heading 301
Airport Frequencies
Type APP Name MILANO APP Frequency 126.75 MHZ
Type ATIS Name ATIS Frequency 112.6 MHZ
Type GND Name ORIO GND Frequency 120.5 MHZ
Type TWR Name ORIO TWR Frequency 126.5 MHZ
Airport Navaids
Type VOR-DME Name Orio Al Serio Frequency 112600 KHZ
Type NDB Name Orio Al Serio Frequency 377 KHZ
Airport Weather Information & NOTAM
ADDS - METARS form results

(1209 UTC 26 October 2020)
Data provider http://aviationweather.gov/metar/data/
 
METAR text: LIME 261150Z 02005KT 360V060 4000 -RA BR BKN030 13/13 Q1005 NOSIG
Conditions at: LIME (BERGAMO/ORIO SER, IT) observed 1150 UTC 26 October 2020
Temperature: 13.0°C (55°F)
Dewpoint: 13.0°C (55°F) [RH = 100%]
Pressure (altimeter): 29.68 inches Hg (1005.0 mb)
Winds: from the NNE (20 degrees) at 6 MPH (5 knots; 2.6 m/s)
Visibility: 2.49 miles (4.01 km)
Ceiling: 3000 feet AGL
Clouds: broken clouds at 3000 feet AGL
Weather: -RA BR  (light rain, mist)

METAR text: LIME 261120Z 35003KT 300V030 4000 -RA BR BKN040 13/12 Q1006 NOSIG
Conditions at: LIME (BERGAMO/ORIO SER, IT) observed 1120 UTC 26 October 2020
Temperature: 13.0°C (55°F)
Dewpoint: 12.0°C (54°F) [RH = 94%]
Pressure (altimeter): 29.70 inches Hg (1006.0 mb)
Winds: from the N (350 degrees) at 3 MPH (3 knots; 1.5 m/s)
Visibility: 2.49 miles (4.01 km)
Ceiling: 4000 feet AGL
Clouds: broken clouds at 4000 feet AGL
Weather: -RA BR  (light rain, mist)

Forecast for: LIME (BERGAMO/ORIO SER, IT)
Text: TAF LIME 261100Z 2612/2712 10008KT 9999 SCT030 BKN050
Forecast period: 1200 UTC 26 October 2020 to 1200 UTC 27 October 2020
Forecast type: FROM: standard forecast or significant change
Winds: from the E (100 degrees) at 9 MPH (8 knots; 4.1 m/s)
Visibility: 6 or more miles (10+ km)
Ceiling: 5000 feet AGL
Clouds: scattered clouds at 3000 feet AGL
broken clouds at 5000 feet AGL
Weather: no significant weather forecast for this period
Text: TEMPO 2612/2618 3000 TSRA
Forecast period: 1200 to 1800 UTC 26 October 2020
Forecast type: TEMPORARY: The following changes expected for less than half the time period
Visibility: 1.86 miles (2.99 km)
Ceiling: unknown
Clouds: missing
Weather: TSRA  (rain associated with thunderstorm(s))
Text: TEMPO 2618/2703 3000 SHRA
Forecast period: 1800 UTC 26 October 2020 to 0300 UTC 27 October 2020
Forecast type: TEMPORARY: The following changes expected for less than half the time period
Visibility: 1.86 miles (2.99 km)
Ceiling: unknown
Clouds: missing
Weather: SHRA  (rain showers)